createdAt,value
2022-12-18T09:30:15.122Z,102125.91
2022-12-18T09:32:22.318Z,102125.91
2022-12-18T09:34:25.070Z,102048.94
2022-12-18T09:36:27.365Z,102057.81
2022-12-18T09:38:30.121Z,102074.72
2022-12-18T09:40:42.799Z,102072.50
2022-12-18T09:42:52.755Z,102096.31
2022-12-18T09:44:55.603Z,102128.41
2022-12-18T09:47:21.387Z,102123.75
2022-12-18T09:49:28.735Z,102142.19
2022-12-18T09:51:39.663Z,102161.22
2022-12-18T09:53:44.512Z,102179.56
2022-12-18T09:55:49.297Z,102180.31
2022-12-18T09:58:33.455Z,102132.13
2022-12-18T10:00:35.832Z,102165.50
2022-12-18T10:02:38.647Z,102204.41
2022-12-18T10:04:41.093Z,102239.47
2022-12-18T10:07:09.078Z,102253.06
2022-12-18T10:09:33.265Z,102265.00
2022-12-18T10:11:50.173Z,102279.25
2022-12-18T10:13:52.554Z,102273.47
2022-12-18T10:15:58.334Z,102288.72
2022-12-18T10:18:17.253Z,102287.41
2022-12-18T10:20:36.437Z,102300.78
2022-12-18T10:22:50.999Z,102293.81
2022-12-18T10:25:18.237Z,102284.56
2022-12-18T10:27:24.773Z,102286.53
2022-12-18T10:29:27.808Z,102285.69
2022-12-18T10:31:30.230Z,102286.56
2022-12-18T10:33:34.087Z,102293.44
2022-12-18T10:35:37.357Z,102296.56
2022-12-18T10:38:07.140Z,102291.84
2022-12-18T10:40:21.785Z,102291.06
2022-12-18T10:42:25.273Z,102305.63
2022-12-18T10:44:27.550Z,102298.91
2022-12-18T10:46:30.035Z,102308.50
2022-12-18T10:48:55.711Z,102318.16
2022-12-18T10:51:10.927Z,102328.63
2022-12-18T10:53:21.393Z,102332.19
2022-12-18T10:55:28.590Z,102327.84
2022-12-18T10:57:35.847Z,102338.34
2022-12-18T10:59:55.885Z,102347.63
2022-12-18T11:01:59.824Z,102342.63
2022-12-18T11:04:09.094Z,102343.62
2022-12-18T11:06:22.829Z,102355.19
2022-12-18T11:08:25.604Z,102353.53
2022-12-18T11:10:40.172Z,102345.72
2022-12-18T11:12:42.647Z,102360.50
2022-12-18T11:14:51.943Z,102356.00
2022-12-18T11:17:25.316Z,102380.00
2022-12-18T11:19:54.120Z,102425.91
2022-12-18T11:21:57.501Z,102491.37
2022-12-18T11:24:00.139Z,102502.53
2022-12-18T11:26:05.080Z,102522.50
2022-12-18T11:28:30.372Z,102528.28
2022-12-18T11:30:37.915Z,102537.75
2022-12-18T11:32:44.215Z,102538.50
2022-12-18T11:34:55.950Z,102534.84
2022-12-18T11:37:03.839Z,102543.03
2022-12-18T11:39:32.357Z,102548.00
2022-12-18T11:42:09.074Z,102542.78
2022-12-18T11:44:14.768Z,102540.41
2022-12-18T11:46:35.675Z,102542.06
2022-12-18T11:48:46.967Z,102541.56
2022-12-18T11:50:56.697Z,102549.72
2022-12-18T11:53:04.226Z,102544.16
2022-12-18T11:55:22.034Z,102542.84
2022-12-18T11:57:39.860Z,102535.78
2022-12-18T12:00:01.786Z,102530.69
2022-12-18T12:02:36.800Z,102528.13
2022-12-18T12:04:47.066Z,102497.56
2022-12-18T12:06:49.239Z,102484.63
2022-12-18T12:09:09.434Z,102495.69
2022-12-18T12:11:42.948Z,102502.19
2022-12-18T12:14:07.622Z,102504.53
2022-12-18T12:16:38.676Z,102507.16
2022-12-18T12:19:23.264Z,102499.09
2022-12-18T12:21:42.114Z,102486.38
2022-12-18T12:24:28.840Z,102474.91
2022-12-18T12:26:44.055Z,102475.41
2022-12-18T12:29:03.945Z,102474.09
2022-12-18T12:31:44.264Z,102466.50
2022-12-18T12:34:08.218Z,102470.81
2022-12-18T12:36:28.954Z,102462.34
2022-12-18T12:38:52.267Z,102457.19
2022-12-18T12:41:06.440Z,102480.44
2022-12-18T12:43:23.425Z,102478.63
2022-12-18T12:45:40.062Z,102477.00
2022-12-18T12:47:44.243Z,102468.38
2022-12-18T12:49:48.767Z,102484.91
2022-12-18T12:52:08.543Z,102492.69
2022-12-18T12:54:20.791Z,102471.69
2022-12-18T12:56:39.888Z,102472.94
2022-12-18T12:58:54.037Z,102471.47
2022-12-18T13:01:25.000Z,102470.16
2022-12-18T13:03:40.058Z,102464.81
2022-12-18T13:05:55.256Z,102459.56
2022-12-18T13:08:07.678Z,102462.91
2022-12-18T13:10:23.588Z,102451.25
2022-12-18T13:12:47.884Z,102448.47
2022-12-18T13:14:50.640Z,102453.78
2022-12-18T13:17:10.827Z,102443.94
2022-12-18T13:19:24.159Z,102445.41
2022-12-18T13:21:33.404Z,102447.16
2022-12-18T13:23:41.379Z,102438.50
2022-12-18T13:25:44.592Z,102434.00
2022-12-18T13:27:56.587Z,102433.75
2022-12-18T13:29:59.196Z,102439.66
2022-12-18T13:32:02.398Z,102431.66
2022-12-18T13:34:27.441Z,102425.09
2022-12-18T13:36:33.686Z,102426.66
2022-12-18T13:38:38.253Z,102417.94
2022-12-18T13:40:55.290Z,102421.31
2022-12-18T13:43:29.828Z,102423.06
2022-12-18T13:45:59.544Z,102419.59
2022-12-18T13:48:02.202Z,102427.88
2022-12-18T13:50:30.957Z,102422.13
2022-12-18T13:52:40.428Z,102415.94
2022-12-18T13:54:44.026Z,102431.38
2022-12-18T13:56:47.654Z,102427.00
2022-12-18T13:59:12.409Z,102418.47
2022-12-18T14:01:24.929Z,102419.69
2022-12-18T14:03:31.447Z,102414.44
2022-12-18T14:05:38.620Z,102400.50
2022-12-18T14:07:44.795Z,102389.37
2022-12-18T14:10:25.922Z,102385.38
2022-12-18T14:12:56.086Z,102385.34
2022-12-18T14:14:59.723Z,102394.06
2022-12-18T14:17:02.123Z,102390.56
2022-12-18T14:19:18.159Z,102400.88
2022-12-18T14:21:30.404Z,102393.81
2022-12-18T14:23:32.640Z,102405.94
2022-12-18T14:25:34.942Z,102410.25
2022-12-18T14:27:42.729Z,102413.59
2022-12-18T14:29:45.658Z,102418.53
2022-12-18T14:32:18.764Z,102411.50
2022-12-18T14:34:27.768Z,102427.59
2022-12-18T14:36:30.968Z,102426.72
2022-12-18T14:38:40.842Z,102430.13
2022-12-18T14:40:44.868Z,102429.16
2022-12-18T14:42:47.325Z,102437.59
2022-12-18T14:45:12.316Z,102438.50
2022-12-18T14:47:17.315Z,102447.16
2022-12-18T14:49:32.777Z,102455.00
2022-12-18T14:51:37.071Z,102464.88
2022-12-18T14:53:47.740Z,102461.75
2022-12-18T14:55:53.439Z,102459.78
2022-12-18T14:57:57.867Z,102455.34
2022-12-18T15:00:15.875Z,102449.12
2022-12-18T15:02:30.086Z,102442.81
2022-12-18T15:04:36.572Z,102428.25
2022-12-18T15:06:41.545Z,102426.66
2022-12-18T15:08:44.769Z,102429.16
2022-12-18T15:10:50.033Z,102430.56
2022-12-18T15:13:04.155Z,102434.13
2022-12-18T15:15:40.371Z,102436.56
2022-12-18T15:17:43.445Z,102432.03
2022-12-18T15:19:48.453Z,102420.06
2022-12-18T15:21:52.193Z,102429.56
2022-12-18T15:24:04.140Z,102436.50
2022-12-18T15:26:10.246Z,102438.19
2022-12-18T15:28:36.977Z,102434.38
2022-12-18T15:30:41.305Z,102439.41
2022-12-18T15:32:46.333Z,102441.13
2022-12-18T15:34:50.026Z,102447.66
2022-12-18T15:36:53.390Z,102443.44
2022-12-18T15:39:04.892Z,102454.53
2022-12-18T15:41:24.476Z,102450.56
2022-12-18T15:43:38.536Z,102466.47
2022-12-18T15:45:42.347Z,102457.69
2022-12-18T15:47:46.067Z,102460.34
2022-12-18T15:49:49.273Z,102457.59
2022-12-18T15:51:59.947Z,102457.56
2022-12-18T15:54:06.702Z,102464.31
2022-12-18T15:56:32.497Z,102457.91
2022-12-18T15:58:36.340Z,102459.72
2022-12-18T16:00:41.787Z,102464.50
2022-12-18T16:02:47.041Z,102463.50
2022-12-18T16:04:52.792Z,102454.06
2022-12-18T16:07:14.486Z,102450.59
2022-12-18T16:09:26.029Z,102448.16
2022-12-18T16:11:42.756Z,102459.81
2022-12-18T16:13:46.199Z,102465.66
2022-12-18T16:15:51.816Z,102457.37
2022-12-18T16:17:55.269Z,102455.56
2022-12-18T16:20:00.502Z,102453.97
2022-12-18T16:22:07.061Z,102455.84
2022-12-18T16:24:31.044Z,102452.38
2022-12-18T16:26:34.573Z,102466.12
2022-12-18T16:28:42.495Z,102467.78
2022-12-18T16:30:48.978Z,102470.47
2022-12-18T16:32:52.176Z,102475.47
2022-12-18T16:35:03.036Z,102469.41
2022-12-18T16:37:09.778Z,102468.19
2022-12-18T16:39:13.258Z,102478.25
2022-12-18T16:41:47.456Z,102476.56
2022-12-18T16:43:54.829Z,102479.72
2022-12-18T16:46:00.566Z,102487.25
2022-12-18T16:48:04.525Z,102485.81
2022-12-18T16:50:09.011Z,102490.19
2022-12-18T16:52:12.927Z,102483.41
2022-12-18T16:54:19.040Z,102481.28
2022-12-18T16:56:23.638Z,102480.47
2022-12-18T16:58:27.372Z,102475.09
2022-12-18T17:00:32.100Z,102465.78
2022-12-18T17:02:39.293Z,102469.25
2022-12-18T17:04:45.639Z,102453.91
2022-12-18T17:06:52.486Z,102447.69
2022-12-18T17:08:58.613Z,102436.91
2022-12-18T17:11:09.061Z,102439.19
2022-12-18T17:13:13.540Z,102433.47
2022-12-18T17:15:17.174Z,102422.31
2022-12-18T17:17:24.167Z,102421.19
2022-12-18T17:19:28.915Z,102431.53
2022-12-18T17:21:31.949Z,102425.03
2022-12-18T17:23:35.618Z,102422.97
2022-12-18T17:25:42.568Z,102405.25
2022-12-18T17:27:49.120Z,102404.03
2022-12-18T17:29:52.691Z,102406.53
2022-12-18T17:31:57.701Z,102412.63
2022-12-18T17:34:04.263Z,102423.06
2022-12-18T17:36:07.867Z,102427.91
2022-12-18T17:38:11.966Z,102429.75
2022-12-18T17:40:15.121Z,102432.41
2022-12-18T17:42:18.911Z,102439.87
2022-12-18T17:44:22.412Z,102434.78
2022-12-18T17:46:26.880Z,102441.66
2022-12-18T17:48:31.178Z,102455.66
2022-12-18T17:50:36.434Z,102455.69
2022-12-18T17:52:39.921Z,102451.94
2022-12-18T17:54:44.710Z,102460.16
2022-12-18T17:56:52.410Z,102452.25
2022-12-18T17:58:57.769Z,102443.56
2022-12-18T18:01:07.826Z,102431.84
2022-12-18T18:03:12.945Z,102415.69
2022-12-18T18:05:16.804Z,102414.62
2022-12-18T18:07:21.168Z,102404.38
2022-12-18T18:09:25.049Z,102388.53
2022-12-18T18:11:46.912Z,102382.16
2022-12-18T18:14:01.967Z,102384.34
2022-12-18T18:16:07.145Z,102377.25
2022-12-18T18:18:10.655Z,102371.56
2022-12-18T18:20:22.303Z,102369.44
2022-12-18T18:22:26.184Z,102371.66
2022-12-18T18:24:32.012Z,102361.66
2022-12-18T18:26:37.228Z,102349.63
2022-12-18T18:28:41.521Z,102357.00
2022-12-18T18:30:45.760Z,102351.06
2022-12-18T18:32:49.782Z,102341.75
2022-12-18T18:34:56.986Z,102340.47
2022-12-18T18:37:02.061Z,102349.19
2022-12-18T18:39:05.796Z,102347.28
2022-12-18T18:41:12.247Z,102345.63
2022-12-18T18:43:15.510Z,102340.50
2022-12-18T18:45:19.152Z,102328.63
2022-12-18T18:47:22.780Z,102326.84
2022-12-18T18:49:28.172Z,102331.63
2022-12-18T18:51:35.049Z,102332.47
2022-12-18T18:53:41.742Z,102326.97
2022-12-18T18:55:44.836Z,102331.37
2022-12-18T18:57:52.091Z,102332.88
2022-12-18T18:59:56.337Z,102348.31
2022-12-18T19:02:04.178Z,102346.44
2022-12-18T19:04:09.019Z,102338.09
2022-12-18T19:06:21.793Z,102336.62
2022-12-18T19:08:26.631Z,102340.34
2022-12-18T19:10:29.826Z,102350.53
2022-12-18T19:12:54.093Z,102358.97
2022-12-18T19:14:57.493Z,102362.97
2022-12-18T19:17:00.608Z,102365.44
2022-12-18T19:19:05.884Z,102374.94
2022-12-18T19:21:10.887Z,102379.47
2022-12-18T19:23:14.190Z,102391.41
2022-12-18T19:25:18.418Z,102404.69
2022-12-18T19:27:22.107Z,102408.34
2022-12-18T19:29:25.893Z,102406.50
2022-12-18T19:31:34.792Z,102407.41
2022-12-18T19:33:43.495Z,102413.16
2022-12-18T19:35:47.545Z,102420.16
2022-12-18T19:37:51.466Z,102416.81
2022-12-18T19:39:57.873Z,102410.38
2022-12-18T19:42:03.706Z,102403.88
2022-12-18T19:44:09.340Z,102399.63
2022-12-18T19:46:15.255Z,102405.03
2022-12-18T19:48:18.449Z,102396.78
2022-12-18T19:50:21.564Z,102412.06
2022-12-18T19:52:24.705Z,102403.09
2022-12-18T19:54:28.085Z,102404.97
2022-12-18T19:56:34.853Z,102403.78
2022-12-18T19:58:39.027Z,102397.09
2022-12-18T20:00:42.501Z,102395.56
2022-12-18T20:02:48.412Z,102396.19
2022-12-18T20:04:51.972Z,102385.00
2022-12-18T20:06:55.287Z,102370.09
2022-12-18T20:09:01.673Z,102367.81
2022-12-18T20:11:05.016Z,102360.81
2022-12-18T20:13:08.684Z,102355.59
2022-12-18T20:15:12.604Z,102361.84
2022-12-18T20:17:15.443Z,102359.59
2022-12-18T20:19:18.853Z,102355.37
2022-12-18T20:21:22.558Z,102354.97
2022-12-18T20:23:25.956Z,102347.50
2022-12-18T20:25:33.670Z,102333.00
2022-12-18T20:27:36.902Z,102327.88
2022-12-18T20:29:41.827Z,102328.53
2022-12-18T20:31:46.203Z,102332.13
2022-12-18T20:33:51.078Z,102324.69
2022-12-18T20:35:55.451Z,102310.16
2022-12-18T20:37:59.828Z,102310.53
2022-12-18T20:40:04.526Z,102323.34
2022-12-18T20:42:08.597Z,102327.63
2022-12-18T20:44:22.662Z,102329.06
2022-12-18T20:46:26.791Z,102319.59
2022-12-18T20:48:30.450Z,102318.63
2022-12-18T20:50:33.229Z,102322.91
2022-12-18T20:52:36.056Z,102323.62
2022-12-18T20:54:39.074Z,102322.03
2022-12-18T20:56:43.646Z,102328.41
2022-12-18T20:58:46.950Z,102322.31
2022-12-18T21:00:49.334Z,102313.03
2022-12-18T21:02:52.325Z,102313.75
2022-12-18T21:04:55.260Z,102306.06
2022-12-18T21:07:02.675Z,102314.87
2022-12-18T21:09:06.154Z,102315.13
2022-12-18T21:11:44.805Z,102313.97
2022-12-18T21:13:47.346Z,102308.16
2022-12-18T21:15:49.614Z,102302.66
2022-12-18T21:17:52.647Z,102316.91
2022-12-18T21:19:55.443Z,102318.50
2022-12-18T21:21:58.346Z,102314.16
2022-12-18T21:24:01.041Z,102322.66
2022-12-18T21:26:21.227Z,102316.06
2022-12-18T21:28:23.779Z,102318.31
2022-12-18T21:30:26.433Z,102311.91
2022-12-18T21:32:29.840Z,102310.03
2022-12-18T21:34:35.970Z,102305.22
2022-12-18T21:36:38.554Z,102295.66
2022-12-18T21:38:40.950Z,102298.59
2022-12-18T21:40:43.866Z,102313.69
2022-12-18T21:43:05.323Z,102317.66
2022-12-18T21:45:08.032Z,102324.03
2022-12-18T21:47:21.412Z,102325.09
2022-12-18T21:49:25.990Z,102309.97
2022-12-18T21:51:28.548Z,102296.84
2022-12-18T21:53:30.806Z,102293.03
2022-12-18T21:55:33.448Z,102303.41
2022-12-18T21:57:36.246Z,102302.09
2022-12-18T21:59:40.302Z,102282.06
2022-12-18T22:01:43.628Z,102281.06
2022-12-18T22:03:46.463Z,102267.44
2022-12-18T22:05:49.389Z,102269.41
2022-12-18T22:08:03.223Z,102239.25
2022-12-18T22:10:06.677Z,102226.84
2022-12-18T22:12:11.959Z,102226.81
2022-12-18T22:14:15.044Z,102210.88
2022-12-18T22:16:20.284Z,102197.25
2022-12-18T22:18:22.918Z,102189.16
2022-12-18T22:20:25.229Z,102186.50
2022-12-18T22:22:29.406Z,102184.97
2022-12-18T22:24:31.795Z,102183.94
2022-12-18T22:26:40.159Z,102180.31
2022-12-18T22:29:01.935Z,102177.38
2022-12-18T22:31:04.173Z,102174.31
2022-12-18T22:33:06.563Z,102182.59
2022-12-18T22:35:14.156Z,102174.41
2022-12-18T22:37:17.971Z,102163.66
2022-12-18T22:39:28.514Z,102158.41
2022-12-18T22:41:32.036Z,102166.25
2022-12-18T22:43:34.931Z,102158.78
2022-12-18T22:45:38.531Z,102160.44
2022-12-18T22:47:41.644Z,102160.25
2022-12-18T22:49:44.005Z,102157.94
2022-12-18T22:51:47.738Z,102154.78
2022-12-18T22:53:50.958Z,102142.19
2022-12-18T22:56:00.530Z,102145.69
2022-12-18T22:58:02.788Z,102137.59
2022-12-18T23:00:05.994Z,102120.22
2022-12-18T23:02:08.594Z,102123.62
2022-12-18T23:04:11.436Z,102131.50
2022-12-18T23:06:14.746Z,102135.09
2022-12-18T23:08:17.042Z,102136.91
2022-12-18T23:10:19.326Z,102143.88
2022-12-18T23:12:21.930Z,102142.19
2022-12-18T23:14:24.271Z,102136.25
2022-12-18T23:16:26.905Z,102127.50
2022-12-18T23:18:29.551Z,102127.63
2022-12-18T23:20:31.814Z,102110.34
2022-12-18T23:22:34.078Z,102106.91
2022-12-18T23:24:36.732Z,102108.75
2022-12-18T23:26:39.190Z,102100.19
2022-12-18T23:28:42.533Z,102083.88
2022-12-18T23:30:45.072Z,102071.75
2022-12-18T23:32:47.424Z,102053.59
2022-12-18T23:34:49.698Z,102028.91
2022-12-18T23:36:56.033Z,102020.44
2022-12-18T23:39:00.639Z,101995.53
2022-12-18T23:41:10.896Z,102000.28
2022-12-18T23:43:13.450Z,101977.97
2022-12-18T23:45:18.148Z,101962.25
